Manga, Brazil
Current Conditions -  °F | °C
As of 5:00 PM on Saturday 25 Oct 2014 (Local Time) from SBMK Reporting Station
Scattered Clouds Scattered Clouds  
Wind Chill: 91°   Ceiling: Unl
Heat Index: 91°   Visibility: 6mi
Dew Point: 46°   Wind: 12mph
Humidity: 21%   Direction: 60°ENE
Pressure: 29.85"   Gusts: NA
Location:  14.76°S, 43.93°W
Report Text: SBMK 251900Z 06010KT 9999 FEW048 SCT060 33/08 Q1011
Loading
Personal Weather Stations






























Interactive Weather Map
Tropical Storm Tracking
New forecast layout! Learn more

10-Day Weather Forecast

Advertisements
Track Severe Weather on mobile